Time;durP1;ratioP1;P1;durP2;ratioP2;P2;SDS_P1;SDS_P2;PMS_P1;PMS_P2;Temp;Humidity;BMP_temperature;BMP_pressure;BME280_temperature;BME280_humidity;BME280_pressure;Samples;Min_cycle;Max_cycle;Signal;HPM_P1;HPM_P2
2021/10/04 08:18:30;;;;;;;1.50;0.43;;;17.50;99.90;;;;;;4975931;23;20243;-69
2021/10/04 08:20:57;;;;;;;0.57;0.30;;;17.80;99.90;;;;;;4962214;28;20248;-73
2021/10/04 08:23:23;;;;;;;4.55;1.05;;;18.00;99.90;;;;;;4971905;28;20218;-69
2021/10/04 08:25:50;;;;;;;1.67;0.45;;;18.00;99.90;;;;;;4975999;28;20258;-69
2021/10/04 08:28:17;;;;;;;0.82;0.40;;;18.20;99.90;;;;;;4976061;28;20207;-70
2021/10/04 08:30:44;;;;;;;0.98;0.30;;;18.10;99.90;;;;;;4975931;28;20218;-68
2021/10/04 08:33:11;;;;;;;4.83;0.53;;;17.50;99.90;;;;;;4976144;28;20664;-69
2021/10/04 08:35:39;;;;;;;2.42;0.43;;;17.50;99.90;;;;;;4967021;28;20231;-69
2021/10/04 08:38:06;;;;;;;3.03;0.60;;;17.80;99.90;;;;;;4976095;28;20570;-69
2021/10/04 08:40:33;;;;;;;1.83;0.50;;;18.00;99.90;;;;;;4975713;28;20215;-69
2021/10/04 08:43:00;;;;;;;0.63;0.45;;;18.50;99.90;;;;;;4976118;28;20211;-68
2021/10/04 08:45:28;;;;;;;1.33;0.40;;;18.50;99.90;;;;;;4967402;28;20694;-68
2021/10/04 08:47:58;;;;;;;3.25;0.73;;;18.10;99.90;;;;;;4956469;29;20215;-69
2021/10/04 08:50:27;;;;;;;2.35;0.57;;;17.80;99.90;;;;;;4956469;29;20684;-69
2021/10/04 08:52:55;;;;;;;1.92;0.30;;;17.70;99.90;;;;;;4956340;29;20567;-69
2021/10/04 08:55:22;;;;;;;1.03;0.30;;;17.50;99.90;;;;;;4956046;28;20224;-69
2021/10/04 08:57:49;;;;;;;4.13;0.47;;;17.50;99.90;;;;;;4956503;29;20219;-69
2021/10/04 09:00:17;;;;;;;2.22;0.30;;;17.50;99.90;;;;;;4955934;29;20667;-69
2021/10/04 09:02:44;;;;;;;2.50;0.30;;;17.40;99.90;;;;;;4956331;29;20255;-69
2021/10/04 09:05:16;;;;;;;2.43;0.50;;;17.20;99.90;;;;;;4956001;29;20319;-69
2021/10/04 09:07:46;;;;;;;3.13;0.40;;;16.70;99.90;;;;;;4956245;29;20236;-68
2021/10/04 09:10:16;;;;;;;1.70;0.47;;;16.40;99.90;;;;;;4956221;29;20315;-68
2021/10/04 09:12:44;;;;;;;2.57;0.43;;;16.10;99.90;;;;;;4956209;29;20215;-69
2021/10/04 09:15:30;;;;;;;1.73;0.30;;;16.00;99.90;;;;;;4955937;29;20586;-68
2021/10/04 09:17:59;;;;;;;2.67;0.57;;;16.10;99.90;;;;;;4956333;29;20237;-69
2021/10/04 09:20:27;;;;;;;1.67;0.30;;;16.00;99.90;;;;;;4956012;29;20215;-68
2021/10/04 09:22:53;;;;;;;1.17;0.33;;;16.10;99.90;;;;;;4956073;29;20701;-69
2021/10/04 09:25:24;;;;;;;2.23;0.40;;;16.10;99.90;;;;;;4955858;29;20306;-68
2021/10/04 09:27:50;;;;;;;1.17;0.37;;;16.20;99.90;;;;;;4955933;29;20242;-70
2021/10/04 09:30:23;;;;;;;0.57;0.23;;;16.20;99.90;;;;;;4955953;29;20208;-70
2021/10/04 09:32:53;;;;;;;1.13;0.40;;;16.20;99.90;;;;;;4956065;29;20215;-71
2021/10/04 09:35:23;;;;;;;1.50;0.40;;;16.40;99.90;;;;;;4955457;29;20695;-69
2021/10/04 09:37:53;;;;;;;2.63;0.50;;;16.50;99.90;;;;;;4955685;29;20578;-72
2021/10/04 09:40:34;;;;;;;0.30;0.30;;;16.40;99.90;;;;;;4955889;29;20214;-69
2021/10/04 09:43:03;;;;;;;1.53;0.30;;;16.30;99.90;;;;;;4955775;29;20214;-70
2021/10/04 09:45:30;;;;;;;1.03;0.67;;;16.20;99.90;;;;;;4955334;29;20247;-69
2021/10/04 09:47:57;;;;;;;1.33;0.30;;;16.40;99.90;;;;;;4955410;29;20243;-69
2021/10/04 09:50:29;;;;;;;2.77;0.70;;;16.50;99.90;;;;;;4955442;29;20204;-69
2021/10/04 09:52:58;;;;;;;1.30;0.20;;;16.50;99.90;;;;;;4955509;29;20204;-70
2021/10/04 09:55:28;;;;;;;0.93;0.40;;;16.40;99.90;;;;;;4955429;29;20224;-76
2021/10/04 09:58:02;;;;;;;2.90;0.63;;;16.30;99.90;;;;;;4955718;29;20574;-73
2021/10/04 10:00:33;;;;;;;1.50;0.30;;;16.30;99.90;;;;;;4955458;29;20658;-76
2021/10/04 10:03:00;;;;;;;4.27;0.53;;;16.30;99.90;;;;;;4955308;29;20671;-71
2021/10/04 10:05:29;;;;;;;2.70;0.37;;;16.20;99.90;;;;;;4954746;29;20232;-74
2021/10/04 10:07:56;;;;;;;2.07;0.43;;;16.30;99.90;;;;;;4954485;28;20239;-72
2021/10/04 10:10:23;;;;;;;1.17;0.50;;;16.40;99.90;;;;;;4955243;29;20212;-74
2021/10/04 10:12:51;;;;;;;0.87;0.27;;;16.60;99.90;;;;;;4955011;29;20630;-74
2021/10/04 10:15:22;;;;;;;3.30;1.00;;;16.70;99.90;;;;;;4955163;29;20250;-73
2021/10/04 10:17:51;;;;;;;1.43;0.30;;;16.80;99.90;;;;;;4955074;29;20222;-75
2021/10/04 10:20:21;;;;;;;0.43;0.30;;;16.90;99.90;;;;;;4954983;29;20239;-69
2021/10/04 10:22:50;;;;;;;1.23;0.23;;;16.80;99.90;;;;;;4955077;29;20552;-69
2021/10/04 10:25:37;;;;;;;3.10;0.40;;;17.00;99.90;;;;;;4955192;29;20231;-69
2021/10/04 10:28:10;;;;;;;1.17;0.40;;;17.30;99.90;;;;;;4955105;29;20246;-69
2021/10/04 10:30:52;;;;;;;3.93;0.30;;;17.30;99.90;;;;;;4954936;29;20734;-69
2021/10/04 10:33:47;;;;;;;3.47;0.90;;;17.30;99.90;;;;;;4955029;29;20210;-72
2021/10/04 10:36:15;;;;;;;4.97;0.40;;;17.30;99.90;;;;;;4954759;29;20231;-77
2021/10/04 10:39:04;;;;;;;2.87;0.30;;;17.20;99.90;;;;;;4954766;29;20207;-69
2021/10/04 10:41:31;;;;;;;2.83;0.70;;;17.10;99.90;;;;;;4954912;29;20215;-74
2021/10/04 10:44:11;;;;;;;1.70;0.50;;;17.20;99.90;;;;;;4954766;29;20215;-68
2021/10/04 10:46:52;;;;;;;0.83;0.43;;;17.40;99.90;;;;;;4954810;29;20235;-75
2021/10/04 10:49:57;;;;;;;1.33;0.30;;;17.30;99.90;;;;;;4954362;29;20208;-69
2021/10/04 10:52:25;;;;;;;0.97;0.30;;;17.40;99.90;;;;;;4954803;29;20203;-69
2021/10/04 10:54:53;;;;;;;0.60;0.20;;;17.40;99.90;;;;;;4954823;29;20239;-71
2021/10/04 10:57:21;;;;;;;4.70;0.40;;;17.20;99.90;;;;;;4954901;29;20247;-71
2021/10/04 11:00:07;;;;;;;4.33;0.57;;;17.40;99.90;;;;;;4954645;29;20204;-71
2021/10/04 11:02:55;;;;;;;2.30;0.30;;;17.30;99.90;;;;;;4954515;29;20207;-78
2021/10/04 11:05:54;;;;;;;2.00;0.40;;;17.40;99.90;;;;;;4954663;29;20232;-72
2021/10/04 11:08:24;;;;;;;1.10;0.40;;;17.30;99.90;;;;;;4954792;29;20244;-80
2021/10/04 11:11:11;;;;;;;3.00;0.23;;;17.20;99.90;;;;;;4954611;29;20204;-77
2021/10/04 11:13:39;;;;;;;1.17;0.30;;;17.20;99.90;;;;;;4954607;29;20570;-68
2021/10/04 11:16:49;;;;;;;1.23;0.30;;;17.50;99.90;;;;;;4954601;29;20232;-68
2021/10/04 11:19:27;;;;;;;0.60;0.23;;;17.70;99.90;;;;;;4956754;28;20216;-68
2021/10/04 11:21:54;;;;;;;2.30;0.30;;;17.80;99.90;;;;;;4957986;29;20212;-70
2021/10/04 11:24:22;;;;;;;1.27;0.30;;;17.80;99.90;;;;;;4957917;29;20733;-67
2021/10/04 11:26:49;;;;;;;1.90;0.40;;;17.70;99.90;;;;;;4958009;29;20235;-67
2021/10/04 11:29:21;;;;;;;1.27;0.30;;;17.70;99.90;;;;;;4957966;29;20215;-69
2021/10/04 11:31:48;;;;;;;0.93;0.30;;;17.90;99.90;;;;;;4958192;29;20207;-70
2021/10/04 11:34:17;;;;;;;2.77;0.30;;;17.80;99.90;;;;;;4957549;29;20208;-67
2021/10/04 11:36:48;;;;;;;4.20;0.70;;;17.70;99.90;;;;;;4957832;29;20212;-67
2021/10/04 11:39:17;;;;;;;0.87;0.23;;;17.70;99.90;;;;;;4957736;29;20208;-73
2021/10/04 11:41:46;;;;;;;3.30;0.30;;;17.70;99.90;;;;;;4958048;29;20243;-77
2021/10/04 11:44:15;;;;;;;0.53;0.30;;;18.00;99.90;;;;;;4957744;29;20214;-73
2021/10/04 11:46:45;;;;;;;4.73;0.83;;;18.10;99.90;;;;;;4957656;29;20262;-80
2021/10/04 11:49:14;;;;;;;1.43;0.33;;;18.00;99.90;;;;;;4957725;29;20686;-78
2021/10/04 11:51:47;;;;;;;2.73;0.30;;;17.90;99.90;;;;;;4957641;29;20216;-80
2021/10/04 11:54:30;;;;;;;0.50;0.40;;;17.90;99.90;;;;;;4957554;29;20675;-79
2021/10/04 11:56:57;;;;;;;1.80;0.20;;;17.70;99.90;;;;;;4957666;29;20204;-72
2021/10/04 11:59:24;;;;;;;3.03;0.30;;;17.50;99.90;;;;;;4957640;29;20211;-70
2021/10/04 12:01:52;;;;;;;0.77;0.20;;;17.50;99.90;;;;;;4957542;29;20255;-71
2021/10/04 12:04:22;;;;;;;1.77;0.63;;;17.40;99.90;;;;;;4957389;29;20231;-69
2021/10/04 12:06:49;;;;;;;3.07;0.30;;;17.40;99.90;;;;;;4957750;29;20232;-72
2021/10/04 12:09:21;;;;;;;4.23;0.47;;;17.40;99.90;;;;;;4957262;29;20667;-69
2021/10/04 12:11:53;;;;;;;2.83;0.40;;;17.50;99.90;;;;;;4957423;29;20216;-70
2021/10/04 12:14:21;;;;;;;2.67;0.20;;;17.60;99.90;;;;;;4957084;29;20246;-69
2021/10/04 12:16:49;;;;;;;1.37;0.40;;;17.70;99.90;;;;;;4957298;29;20247;-71
2021/10/04 12:19:16;;;;;;;1.33;0.60;;;17.80;99.90;;;;;;4957118;29;20228;-69
2021/10/04 12:21:45;;;;;;;0.97;0.37;;;17.90;99.90;;;;;;4957283;29;20222;-68
2021/10/04 12:24:18;;;;;;;1.77;0.30;;;17.90;99.90;;;;;;4957342;29;20212;-68
2021/10/04 12:26:54;;;;;;;1.53;0.40;;;17.80;99.90;;;;;;4957168;29;20212;-69
2021/10/04 12:29:33;;;;;;;2.30;0.40;;;17.70;99.90;;;;;;4956797;28;20665;-68
2021/10/04 12:32:25;;;;;;;0.67;0.30;;;17.80;99.90;;;;;;4956856;29;20215;-70
2021/10/04 12:35:15;;;;;;;1.27;0.23;;;17.80;99.90;;;;;;4956855;29;20232;-70
2021/10/04 12:37:47;;;;;;;1.90;1.10;;;17.80;99.90;;;;;;4956816;29;20216;-74
2021/10/04 12:40:28;;;;;;;3.90;0.50;;;17.80;99.90;;;;;;4956802;29;20215;-68
2021/10/04 12:43:00;;;;;;;3.37;0.30;;;17.90;99.90;;;;;;4956765;29;20671;-69
2021/10/04 12:45:27;;;;;;;2.37;0.30;;;18.00;99.90;;;;;;4956668;29;20235;-70
2021/10/04 12:48:01;;;;;;;2.63;0.37;;;17.90;99.90;;;;;;4956874;29;20242;-76
2021/10/04 12:50:30;;;;;;;2.40;0.50;;;17.90;99.90;;;;;;4956474;29;20218;-78
2021/10/04 12:53:16;;;;;;;1.57;0.33;;;17.90;99.90;;;;;;4956563;29;20215;-73
2021/10/04 12:56:06;;;;;;;1.60;0.30;;;18.00;99.90;;;;;;4956451;29;20231;-71
2021/10/04 12:58:35;;;;;;;0.83;0.20;;;18.10;99.90;;;;;;4951434;29;20267;-71
2021/10/04 13:01:13;;;;;;;2.40;0.30;;;18.10;99.90;;;;;;4956537;29;20571;-72
2021/10/04 13:03:53;;;;;;;0.73;0.20;;;18.20;99.90;;;;;;4956655;29;20208;-70
2021/10/04 13:06:20;;;;;;;2.43;0.40;;;18.30;99.90;;;;;;4956356;29;20695;-71
2021/10/04 13:08:47;;;;;;;0.77;0.30;;;18.30;99.90;;;;;;4956364;29;20236;-76
2021/10/04 13:11:17;;;;;;;1.90;0.20;;;18.20;99.90;;;;;;4956429;29;20303;-68
2021/10/04 13:13:43;;;;;;;1.13;0.10;;;18.00;99.90;;;;;;4956256;29;20204;-69
2021/10/04 13:16:10;;;;;;;0.90;0.37;;;18.00;99.90;;;;;;4956056;29;20232;-70
2021/10/04 13:18:37;;;;;;;1.07;0.23;;;18.00;99.90;;;;;;4956242;29;20227;-69
2021/10/04 13:21:04;;;;;;;1.87;0.30;;;18.00;99.90;;;;;;4956227;29;20219;-72
2021/10/04 13:23:31;;;;;;;1.03;0.40;;;18.10;99.90;;;;;;4956438;29;20212;-69
2021/10/04 13:25:59;;;;;;;0.60;0.30;;;18.30;99.90;;;;;;4955927;29;20228;-69
2021/10/04 13:28:28;;;;;;;1.20;0.77;;;18.30;99.90;;;;;;4955769;29;20721;-70
2021/10/04 13:30:55;;;;;;;2.00;0.57;;;18.40;99.90;;;;;;4955997;29;20218;-71
2021/10/04 13:33:22;;;;;;;3.28;0.50;;;18.40;99.90;;;;;;4955917;29;20208;-69
2021/10/04 13:35:49;;;;;;;1.43;0.30;;;18.40;99.90;;;;;;4955631;29;20224;-69
2021/10/04 13:38:16;;;;;;;2.10;0.20;;;18.30;99.90;;;;;;4955734;29;20222;-69
2021/10/04 13:40:43;;;;;;;1.57;0.20;;;18.20;99.90;;;;;;4955770;29;20639;-72
2021/10/04 13:43:10;;;;;;;1.57;0.30;;;18.20;99.90;;;;;;4954902;28;20214;-68
2021/10/04 13:45:39;;;;;;;2.70;0.27;;;18.20;99.90;;;;;;4955778;29;20228;-69
2021/10/04 13:48:06;;;;;;;2.93;0.30;;;18.10;99.90;;;;;;4955656;29;20235;-68
2021/10/04 13:50:33;;;;;;;1.83;0.27;;;18.10;99.90;;;;;;4955170;29;20208;-69
2021/10/04 13:52:59;;;;;;;3.03;0.40;;;18.10;99.90;;;;;;4955761;29;20211;-67
2021/10/04 13:55:26;;;;;;;1.07;0.20;;;17.90;99.90;;;;;;4955626;29;20228;-68
2021/10/04 13:57:53;;;;;;;0.67;0.10;;;17.90;99.90;;;;;;4955592;29;20215;-70
2021/10/04 14:00:22;;;;;;;0.30;0.10;;;17.90;99.90;;;;;;4955545;29;20224;-68
2021/10/04 14:02:50;;;;;;;2.13;0.40;;;17.90;99.90;;;;;;4955468;29;20208;-68
2021/10/04 14:05:17;;;;;;;1.77;0.20;;;17.90;99.90;;;;;;4955196;29;20239;-68
2021/10/04 14:07:44;;;;;;;2.30;0.23;;;18.00;99.90;;;;;;4955563;29;20360;-68
2021/10/04 14:10:11;;;;;;;0.37;0.20;;;18.10;99.90;;;;;;4955274;29;20678;-68
2021/10/04 14:12:38;;;;;;;1.00;0.33;;;18.10;99.90;;;;;;4955385;29;20208;-67
2021/10/04 14:15:07;;;;;;;4.57;0.67;;;18.00;99.90;;;;;;4955598;29;20224;-68
2021/10/04 14:17:34;;;;;;;1.67;0.30;;;17.90;99.90;;;;;;4955034;29;20215;-69
2021/10/04 14:20:04;;;;;;;0.97;0.33;;;17.90;99.90;;;;;;4954894;29;20216;-68
2021/10/04 14:22:30;;;;;;;3.13;0.40;;;17.80;99.90;;;;;;4955345;29;20210;-68
2021/10/04 14:24:57;;;;;;;2.30;0.20;;;17.80;99.90;;;;;;4955147;29;20235;-72
2021/10/04 14:27:24;;;;;;;0.60;0.20;;;17.90;99.90;;;;;;4955091;29;20246;-69
2021/10/04 14:29:52;;;;;;;4.47;0.53;;;18.10;99.90;;;;;;4954632;29;20215;-69
2021/10/04 14:32:19;;;;;;;0.63;0.27;;;18.20;99.90;;;;;;4954667;29;20211;-68
2021/10/04 14:34:46;;;;;;;2.03;0.37;;;18.20;99.90;;;;;;4954583;29;20235;-70
2021/10/04 14:37:14;;;;;;;2.17;0.23;;;18.20;99.90;;;;;;4955003;29;20234;-69
2021/10/04 14:39:41;;;;;;;1.43;0.30;;;18.30;99.90;;;;;;4955084;29;20203;-73
2021/10/04 14:42:09;;;;;;;1.13;0.20;;;18.20;99.90;;;;;;4950081;28;20203;-69
2021/10/04 14:44:36;;;;;;;0.90;0.30;;;18.00;99.90;;;;;;4954755;28;20235;-68
2021/10/04 14:47:04;;;;;;;3.05;0.30;;;18.00;99.90;;;;;;4947728;28;20204;-70
2021/10/04 14:49:31;;;;;;;2.97;0.27;;;18.00;99.90;;;;;;4970717;28;20241;-71
2021/10/04 14:51:57;;;;;;;5.80;0.50;;;18.00;99.90;;;;;;4956016;28;20641;-69
2021/10/04 14:54:26;;;;;;;2.78;0.22;;;18.00;99.90;;;;;;4956241;28;20224;-70
2021/10/04 14:56:53;;;;;;;3.80;0.50;;;18.10;99.90;;;;;;4958562;29;20248;-71
2021/10/04 14:59:20;;;;;;;1.80;0.20;;;18.20;99.90;;;;;;4958556;29;20287;-71
2021/10/04 15:01:46;;;;;;;1.43;0.30;;;18.10;99.90;;;;;;4958299;29;20215;-71
2021/10/04 15:04:15;;;;;;;1.23;0.40;;;18.00;99.90;;;;;;4958163;28;20208;-69
2021/10/04 15:06:42;;;;;;;1.50;0.40;;;17.90;99.90;;;;;;4957806;29;20667;-69
2021/10/04 15:09:09;;;;;;;2.40;0.27;;;18.00;99.90;;;;;;4958250;29;20235;-70
2021/10/04 15:11:37;;;;;;;1.37;0.50;;;18.00;99.90;;;;;;4957580;29;20222;-69
2021/10/04 15:14:04;;;;;;;2.00;0.20;;;17.90;99.90;;;;;;4958295;28;20212;-68
2021/10/04 15:16:31;;;;;;;1.90;0.30;;;17.70;99.90;;;;;;4958307;29;20212;-69
2021/10/04 15:18:58;;;;;;;1.07;0.30;;;17.70;99.90;;;;;;4958189;29;20224;-69
2021/10/04 15:21:25;;;;;;;0.73;0.30;;;17.50;99.90;;;;;;4957951;29;20222;-69
2021/10/04 15:23:52;;;;;;;2.13;0.20;;;17.50;99.90;;;;;;4957791;29;20208;-70
2021/10/04 15:26:19;;;;;;;1.30;0.30;;;17.60;99.90;;;;;;4957856;28;20726;-69
2021/10/04 15:28:47;;;;;;;0.30;0.10;;;17.80;99.90;;;;;;4958139;29;20239;-69
2021/10/04 15:31:14;;;;;;;1.80;0.40;;;17.90;99.90;;;;;;4957621;29;20208;-69
2021/10/04 15:33:41;;;;;;;0.40;0.13;;;17.90;99.90;;;;;;4957918;29;20204;-69
2021/10/04 15:36:08;;;;;;;0.50;0.30;;;17.70;99.90;;;;;;4957246;28;20234;-70
2021/10/04 15:38:35;;;;;;;3.50;0.30;;;17.60;99.90;;;;;;4957316;29;20208;-70
2021/10/04 15:41:02;;;;;;;0.23;0.13;;;17.70;99.90;;;;;;4957158;29;20300;-69
2021/10/04 15:43:29;;;;;;;1.10;0.27;;;17.70;99.90;;;;;;4957703;29;20651;-71
2021/10/04 15:45:58;;;;;;;0.30;0.20;;;17.80;99.90;;;;;;4957646;28;20238;-71
2021/10/04 15:48:30;;;;;;;1.83;0.40;;;17.80;99.90;;;;;;4957583;29;20713;-70
2021/10/04 15:50:58;;;;;;;3.10;0.40;;;17.70;99.90;;;;;;4957151;29;20659;-70
2021/10/04 15:53:25;;;;;;;2.60;0.50;;;17.70;99.90;;;;;;4957388;29;20219;-71
2021/10/04 15:55:53;;;;;;;1.80;0.40;;;17.70;99.90;;;;;;4957600;28;20228;-71
2021/10/04 15:58:21;;;;;;;2.97;0.47;;;17.60;99.90;;;;;;4957593;29;20234;-71
2021/10/04 16:00:48;;;;;;;1.03;0.50;;;17.60;99.90;;;;;;4957315;29;20211;-72
2021/10/04 16:03:16;;;;;;;1.73;0.33;;;17.50;99.90;;;;;;4957353;29;20215;-74
2021/10/04 16:05:44;;;;;;;1.20;0.40;;;17.30;99.90;;;;;;4955900;28;20351;-74
2021/10/04 16:08:14;;;;;;;1.63;0.53;;;17.40;99.90;;;;;;4957008;29;20706;-72
2021/10/04 16:10:42;;;;;;;0.70;0.43;;;17.40;99.90;;;;;;4957072;29;20204;-70
2021/10/04 16:13:09;;;;;;;1.33;0.50;;;17.50;99.90;;;;;;4957034;29;20211;-71
2021/10/04 16:15:36;;;;;;;2.50;0.60;;;17.60;99.90;;;;;;4956819;28;20235;-70
2021/10/04 16:18:03;;;;;;;2.90;0.97;;;17.60;99.90;;;;;;4956628;29;20222;-70
2021/10/04 16:20:31;;;;;;;2.77;0.80;;;17.60;99.90;;;;;;4956468;29;20615;-70
2021/10/04 16:22:57;;;;;;;2.40;0.80;;;17.70;99.90;;;;;;4956815;29;20208;-71
2021/10/04 16:25:24;;;;;;;1.40;0.50;;;17.60;99.90;;;;;;4956805;28;20242;-72
2021/10/04 16:27:51;;;;;;;0.53;0.47;;;17.50;99.90;;;;;;4956980;29;20218;-70
2021/10/04 16:30:18;;;;;;;2.10;0.47;;;17.20;99.90;;;;;;4956427;29;20200;-70
2021/10/04 16:32:45;;;;;;;2.83;0.60;;;17.10;99.90;;;;;;4956740;29;20212;-70
2021/10/04 16:35:11;;;;;;;2.37;1.00;;;17.00;99.90;;;;;;4956123;28;20220;-70
2021/10/04 16:37:40;;;;;;;2.60;0.40;;;16.90;99.90;;;;;;4956845;29;20214;-71
2021/10/04 16:40:07;;;;;;;0.90;0.23;;;16.80;99.90;;;;;;4957167;29;20214;-71
2021/10/04 16:42:37;;;;;;;2.93;0.37;;;16.70;99.90;;;;;;4956674;29;20561;-69
2021/10/04 16:45:05;;;;;;;3.80;0.37;;;16.60;99.90;;;;;;4956056;28;20714;-69
2021/10/04 16:47:31;;;;;;;1.13;0.50;;;16.50;99.90;;;;;;4955729;29;20212;-68
2021/10/04 16:49:58;;;;;;;1.63;0.40;;;16.30;99.90;;;;;;4955491;29;20231;-69
2021/10/04 16:52:25;;;;;;;1.27;0.37;;;16.30;99.90;;;;;;4956134;29;20284;-70
2021/10/04 16:54:53;;;;;;;1.53;0.40;;;16.30;99.90;;;;;;4956006;28;20236;-68
2021/10/04 16:57:20;;;;;;;1.67;0.30;;;16.30;99.90;;;;;;4955902;29;20208;-69
2021/10/04 16:59:47;;;;;;;2.20;0.30;;;16.30;99.90;;;;;;4955115;29;20663;-69
2021/10/04 17:02:15;;;;;;;1.80;0.30;;;16.20;99.90;;;;;;4955052;29;20235;-69
2021/10/04 17:04:42;;;;;;;2.30;0.30;;;16.20;99.90;;;;;;4955238;28;20323;-72
2021/10/04 17:07:09;;;;;;;0.60;0.30;;;16.20;99.90;;;;;;4955198;29;20204;-72
2021/10/04 17:09:36;;;;;;;0.40;0.33;;;16.20;99.90;;;;;;4955503;29;20246;-72
2021/10/04 17:12:04;;;;;;;2.43;0.20;;;16.30;99.90;;;;;;4955619;29;20204;-70
2021/10/04 17:14:31;;;;;;;2.17;0.30;;;16.30;99.90;;;;;;4956101;28;20228;-72
2021/10/04 17:16:58;;;;;;;0.83;0.40;;;16.30;99.90;;;;;;4955348;28;20210;-71
2021/10/04 17:19:25;;;;;;;0.60;0.30;;;16.30;99.90;;;;;;4955386;29;20224;-70
2021/10/04 17:21:52;;;;;;;1.67;0.40;;;16.30;99.90;;;;;;4955500;29;20219;-72
2021/10/04 17:24:19;;;;;;;2.10;0.50;;;16.30;99.90;;;;;;4955572;28;20703;-70
2021/10/04 17:26:47;;;;;;;1.10;0.60;;;16.30;99.90;;;;;;4955339;29;20210;-72
2021/10/04 17:29:15;;;;;;;1.07;0.40;;;16.20;99.90;;;;;;4955564;29;20240;-71
2021/10/04 17:31:42;;;;;;;0.87;0.47;;;16.20;99.90;;;;;;4955805;29;20575;-71
2021/10/04 17:34:09;;;;;;;1.17;0.40;;;16.10;99.90;;;;;;4955278;28;20667;-71
2021/10/04 17:36:36;;;;;;;0.97;0.40;;;16.00;99.90;;;;;;4955674;29;20211;-71
2021/10/04 17:39:05;;;;;;;3.37;0.60;;;16.00;99.90;;;;;;4955468;29;20208;-71
2021/10/04 17:41:32;;;;;;;3.40;0.60;;;15.80;99.90;;;;;;4955330;29;20688;-71
2021/10/04 17:43:59;;;;;;;2.20;0.60;;;15.70;99.90;;;;;;4955275;28;20212;-71
2021/10/04 17:46:27;;;;;;;2.70;0.57;;;15.60;99.90;;;;;;4955606;29;20299;-71
2021/10/04 17:48:54;;;;;;;0.93;0.40;;;15.50;99.90;;;;;;4955426;29;20299;-71
2021/10/04 17:51:21;;;;;;;2.17;0.40;;;15.40;99.90;;;;;;4955310;29;20214;-71
2021/10/04 17:53:48;;;;;;;1.80;0.57;;;15.40;99.90;;;;;;4954918;29;20696;-72
2021/10/04 17:56:15;;;;;;;4.67;0.83;;;15.20;99.90;;;;;;4955054;28;20361;-70
2021/10/04 17:58:42;;;;;;;3.67;1.00;;;15.20;99.90;;;;;;4955677;29;20212;-71
2021/10/04 18:01:09;;;;;;;3.73;1.03;;;15.10;99.90;;;;;;4955062;29;20215;-72
2021/10/04 18:03:37;;;;;;;1.20;0.60;;;15.00;99.90;;;;;;4955376;29;20215;-71
2021/10/04 18:06:05;;;;;;;2.00;0.50;;;15.00;99.90;;;;;;4955060;28;20247;-71
2021/10/04 18:08:32;;;;;;;2.03;0.80;;;15.10;99.90;;;;;;4955085;29;20299;-72
2021/10/04 18:10:59;;;;;;;0.73;0.60;;;15.00;99.90;;;;;;4953834;28;20204;-74
2021/10/04 18:13:26;;;;;;;4.13;0.60;;;15.00;99.90;;;;;;4955104;29;20207;-73
2021/10/04 18:15:53;;;;;;;2.10;0.63;;;15.00;99.90;;;;;;4954883;28;20224;-75
2021/10/04 18:18:20;;;;;;;3.80;0.90;;;15.00;99.90;;;;;;4954901;29;20208;-73
2021/10/04 18:20:50;;;;;;;2.00;0.87;;;15.00;99.90;;;;;;4954412;29;20204;-73
2021/10/04 18:23:16;;;;;;;1.93;1.10;;;15.00;99.90;;;;;;4954995;29;20208;-73
2021/10/04 18:25:43;;;;;;;3.00;1.30;;;15.00;99.90;;;;;;4954407;28;20586;-73
2021/10/04 18:28:12;;;;;;;3.40;1.20;;;15.00;99.90;;;;;;4954018;28;20218;-73
2021/10/04 18:30:40;;;;;;;1.40;0.80;;;15.00;99.90;;;;;;4954244;29;20236;-73
2021/10/04 18:33:07;;;;;;;2.93;1.03;;;14.90;99.90;;;;;;4954488;29;20216;-73
2021/10/04 18:35:35;;;;;;;1.47;1.13;;;14.90;99.90;;;;;;4954196;28;20303;-72
2021/10/04 18:38:04;;;;;;;3.17;1.10;;;14.90;99.90;;;;;;4954464;28;20667;-71
2021/10/04 18:40:31;;;;;;;4.17;1.00;;;14.90;99.90;;;;;;4954428;29;20211;-72
2021/10/04 18:42:58;;;;;;;4.13;1.10;;;14.80;99.90;;;;;;4954444;29;20204;-72
2021/10/04 18:45:26;;;;;;;2.37;1.20;;;14.80;99.90;;;;;;4954369;28;20727;-72
2021/10/04 18:47:55;;;;;;;3.93;1.00;;;14.70;99.90;;;;;;4954054;29;20208;-72
2021/10/04 18:50:27;;;;;;;1.23;0.73;;;14.70;99.90;;;;;;4954472;29;20231;-72
2021/10/04 18:52:55;;;;;;;2.53;0.90;;;14.50;99.90;;;;;;4954595;29;20212;-72
2021/10/04 18:55:25;;;;;;;2.97;0.80;;;14.50;99.90;;;;;;4955018;28;20223;-71
2021/10/04 18:57:52;;;;;;;2.83;1.27;;;14.40;99.90;;;;;;4954555;29;20242;-71
2021/10/04 19:00:19;;;;;;;2.87;1.00;;;14.40;99.90;;;;;;4954239;29;20204;-72
2021/10/04 19:02:46;;;;;;;3.23;0.70;;;14.30;99.90;;;;;;4954430;29;20215;-72
2021/10/04 19:05:13;;;;;;;2.93;0.83;;;14.30;99.90;;;;;;4954253;28;20224;-72
2021/10/04 19:07:40;;;;;;;3.00;0.80;;;14.20;99.90;;;;;;4954823;29;20292;-72
2021/10/04 19:10:08;;;;;;;2.17;0.93;;;14.30;99.90;;;;;;4954200;29;20239;-72
2021/10/04 19:12:36;;;;;;;1.37;0.80;;;14.20;99.90;;;;;;4954322;29;20208;-72
2021/10/04 19:15:05;;;;;;;1.07;0.60;;;14.10;99.90;;;;;;4954256;28;20572;-72
2021/10/04 19:17:32;;;;;;;3.07;0.90;;;14.10;99.90;;;;;;4954708;29;20208;-73
2021/10/04 19:19:59;;;;;;;1.53;0.60;;;14.10;99.90;;;;;;4953947;29;20230;-71
2021/10/04 19:22:27;;;;;;;1.20;0.57;;;14.20;99.90;;;;;;4955075;29;20208;-71
2021/10/04 19:24:54;;;;;;;2.47;0.60;;;14.20;99.90;;;;;;4955001;28;20235;-71
2021/10/04 19:27:23;;;;;;;2.63;0.50;;;14.10;99.90;;;;;;4955240;29;20204;-74
2021/10/04 19:29:51;;;;;;;5.20;0.60;;;14.10;99.90;;;;;;4955353;29;20239;-71
2021/10/04 19:32:20;;;;;;;1.87;0.90;;;14.00;99.90;;;;;;4955266;29;20204;-86
2021/10/04 19:34:47;;;;;;;2.43;0.77;;;14.10;99.90;;;;;;4955439;28;20224;-78
2021/10/04 19:37:17;;;;;;;1.63;0.40;;;14.10;99.90;;;;;;4955814;29;20211;-79
2021/10/04 19:39:43;;;;;;;4.90;1.10;;;14.10;99.90;;;;;;4955527;28;20208;-72
2021/10/04 19:42:10;;;;;;;2.13;0.70;;;14.00;99.90;;;;;;4958624;29;20208;-73
2021/10/04 19:44:38;;;;;;;2.83;0.50;;;14.10;99.90;;;;;;4958556;28;20232;-74
2021/10/04 19:47:06;;;;;;;0.93;0.50;;;14.10;99.90;;;;;;4961391;29;20204;-73
2021/10/04 19:49:33;;;;;;;0.97;0.50;;;14.00;99.90;;;;;;4959223;29;20253;-74
2021/10/04 19:52:00;;;;;;;3.53;0.60;;;14.20;99.90;;;;;;4958656;29;20575;-71
2021/10/04 19:54:33;;;;;;;1.70;0.50;;;14.20;99.90;;;;;;4957690;28;20270;-71
2021/10/04 19:57:00;;;;;;;1.07;0.40;;;14.20;99.90;;;;;;4946104;29;20218;-70
2021/10/04 19:59:27;;;;;;;1.53;0.60;;;14.30;99.90;;;;;;4948988;29;20204;-71
2021/10/04 20:01:55;;;;;;;1.00;0.50;;;14.30;99.90;;;;;;4956372;29;20217;-71
2021/10/04 20:04:23;;;;;;;0.73;0.50;;;14.20;99.90;;;;;;4954201;28;21414;-75
2021/10/04 20:06:50;;;;;;;2.37;0.57;;;14.10;99.90;;;;;;4949888;29;20682;-76
2021/10/04 20:09:17;;;;;;;2.57;0.53;;;14.10;99.90;;;;;;4955373;29;20592;-75
2021/10/04 20:11:45;;;;;;;1.40;0.60;;;14.10;99.90;;;;;;4951878;29;20208;-75
2021/10/04 20:14:12;;;;;;;1.77;0.60;;;14.00;99.90;;;;;;4949060;28;20213;-78
2021/10/04 20:16:39;;;;;;;3.33;0.70;;;14.00;99.90;;;;;;4949186;29;20210;-73
2021/10/04 20:19:07;;;;;;;2.17;0.50;;;14.00;99.90;;;;;;4956218;29;20220;-77
2021/10/04 20:21:39;;;;;;;1.50;0.50;;;14.00;99.90;;;;;;4951839;29;20204;-71
2021/10/04 20:24:14;;;;;;;1.60;0.47;;;14.00;99.90;;;;;;4956695;28;20263;-72
2021/10/04 20:26:41;;;;;;;1.03;0.60;;;13.80;99.90;;;;;;4947008;29;20564;-71
2021/10/04 20:29:08;;;;;;;1.13;0.50;;;13.70;99.90;;;;;;4954170;29;20211;-72
2021/10/04 20:31:35;;;;;;;1.73;0.60;;;13.70;99.90;;;;;;4956859;29;20227;-75
2021/10/04 20:34:02;;;;;;;1.00;0.50;;;13.70;99.90;;;;;;4948998;28;20204;-74
2021/10/04 20:36:29;;;;;;;1.60;0.60;;;13.70;99.90;;;;;;4951383;29;20643;-72
2021/10/04 20:38:58;;;;;;;1.23;0.50;;;13.70;99.90;;;;;;4947680;29;20218;-71
2021/10/04 20:41:25;;;;;;;4.63;0.70;;;13.70;99.90;;;;;;4955042;29;20216;-77
2021/10/04 20:43:52;;;;;;;2.87;0.57;;;13.70;99.90;;;;;;4943093;29;20216;-71
2021/10/04 20:46:19;;;;;;;3.10;0.43;;;13.60;99.90;;;;;;4947015;29;20235;-71
2021/10/04 20:48:46;;;;;;;2.30;1.00;;;13.60;99.90;;;;;;4950244;29;20211;-74
2021/10/04 20:51:13;;;;;;;3.23;0.70;;;13.60;99.90;;;;;;4947603;29;20317;-71
2021/10/04 20:53:41;;;;;;;1.27;0.60;;;13.50;99.90;;;;;;4950922;29;20255;-72
2021/10/04 20:56:10;;;;;;;2.30;0.50;;;13.50;99.90;;;;;;4948120;28;20232;-71
2021/10/04 20:58:37;;;;;;;4.23;0.40;;;13.50;99.90;;;;;;4946629;29;20211;-71
2021/10/04 21:01:04;;;;;;;2.63;0.70;;;13.40;99.90;;;;;;4950611;29;20211;-73
2021/10/04 21:03:31;;;;;;;0.67;0.40;;;13.40;99.90;;;;;;4952493;29;20204;-80
2021/10/04 21:05:59;;;;;;;1.00;0.50;;;13.50;99.90;;;;;;4952234;28;20238;-72
2021/10/04 21:08:27;;;;;;;1.47;0.40;;;13.40;99.90;;;;;;4946811;29;20236;-75
2021/10/04 21:10:54;;;;;;;0.70;0.50;;;13.40;99.90;;;;;;4946732;29;20721;-73
2021/10/04 21:13:23;;;;;;;2.90;0.60;;;13.40;99.90;;;;;;4953045;29;20220;-76
2021/10/04 21:15:50;;;;;;;1.60;0.67;;;13.40;99.90;;;;;;4942440;29;20247;-72